Time;durP1;ratioP1;P1;durP2;ratioP2;P2;SDS_P1;SDS_P2;PMS_P1;PMS_P2;Temp;Humidity;BMP_temperature;BMP_pressure;BME280_temperature;BME280_humidity;BME280_pressure;Samples;Min_cycle;Max_cycle;Signal;HPM_P1;HPM_P2
2022/03/04 00:00:46;;;;;;;9.77;5.55;;;;;;;;;;5045083;28;20018;-55
2022/03/04 00:03:12;;;;;;;9.20;6.18;;;;;;;;;;5040741;28;20025;-53
2022/03/04 00:05:39;;;;;;;11.02;6.55;;;;;;;;;;5044530;28;20045;-55
2022/03/04 00:08:05;;;;;;;9.23;6.28;;;;;;;;;;5042433;28;20768;-55
2022/03/04 00:10:32;;;;;;;10.10;6.00;;;;;;;;;;5043769;28;20027;-53
2022/03/04 00:12:58;;;;;;;11.02;6.45;;;;;;;;;;5043316;28;20043;-54
2022/03/04 00:15:24;;;;;;;8.85;6.25;;;;;;;;;;5042905;28;20096;-54
2022/03/04 00:17:50;;;;;;;10.27;6.00;;;;;;;;;;5042272;28;20037;-56
2022/03/04 00:20:16;;;;;;;8.65;5.72;;;;;;;;;;5042714;28;20387;-55
2022/03/04 00:22:43;;;;;;;11.65;5.68;;;;;;;;;;5041201;28;20095;-57
2022/03/04 00:25:09;;;;;;;9.57;5.25;;;;;;;;;;5037792;28;20029;-56
2022/03/04 00:27:35;;;;;;;8.55;5.90;;;;;;;;;;5046850;28;20041;-54
2022/03/04 00:30:01;;;;;;;9.73;6.15;;;;;;;;;;5050733;28;20029;-57
2022/03/04 00:32:28;;;;;;;7.88;5.35;;;;;;;;;;5049401;28;20167;-57
2022/03/04 00:34:54;;;;;;;10.07;5.50;;;;;;;;;;5051677;28;20029;-54
2022/03/04 00:37:20;;;;;;;9.43;5.63;;;;;;;;;;5050813;28;20070;-54
2022/03/04 00:39:46;;;;;;;9.43;5.60;;;;;;;;;;5050922;28;20103;-55
2022/03/04 00:42:12;;;;;;;10.77;5.75;;;;;;;;;;5051023;28;20029;-55
2022/03/04 00:44:38;;;;;;;10.88;6.15;;;;;;;;;;5050271;28;20035;-53
2022/03/04 00:47:07;;;;;;;8.95;5.13;;;;;;;;;;5043767;28;20485;-56
2022/03/04 00:49:34;;;;;;;9.23;5.70;;;;;;;;;;5051044;28;20033;-58
2022/03/04 00:52:01;;;;;;;8.38;5.18;;;;;;;;;;5050598;28;20071;-56
2022/03/04 00:54:27;;;;;;;10.68;5.93;;;;;;;;;;5050601;28;20033;-53
2022/03/04 00:56:53;;;;;;;11.15;5.90;;;;;;;;;;5050584;28;20108;-56
2022/03/04 00:59:19;;;;;;;9.73;5.53;;;;;;;;;;5051181;28;20112;-55
2022/03/04 01:01:45;;;;;;;8.30;5.25;;;;;;;;;;5040430;28;20060;-53
2022/03/04 01:04:11;;;;;;;10.35;6.30;;;;;;;;;;5050425;28;20148;-57
2022/03/04 01:06:38;;;;;;;8.95;5.57;;;;;;;;;;5049317;28;20406;-55
2022/03/04 01:09:05;;;;;;;9.00;4.82;;;;;;;;;;5049002;28;20025;-57
2022/03/04 01:11:32;;;;;;;8.60;5.22;;;;;;;;;;5050235;28;20083;-57
2022/03/04 01:13:58;;;;;;;10.57;5.57;;;;;;;;;;5050326;28;20402;-56
2022/03/04 01:16:25;;;;;;;9.32;5.63;;;;;;;;;;5050240;28;20478;-56
2022/03/04 01:18:51;;;;;;;9.60;5.10;;;;;;;;;;5050259;28;20059;-56
2022/03/04 01:21:17;;;;;;;8.88;4.80;;;;;;;;;;5047540;28;20036;-56
2022/03/04 01:23:43;;;;;;;10.20;5.75;;;;;;;;;;5045720;28;20155;-57
2022/03/04 01:26:09;;;;;;;8.40;5.38;;;;;;;;;;5050409;28;20143;-57
2022/03/04 01:28:36;;;;;;;8.95;5.78;;;;;;;;;;5049544;28;20063;-56
2022/03/04 01:31:02;;;;;;;9.48;5.40;;;;;;;;;;5050305;28;20021;-53
2022/03/04 01:33:28;;;;;;;9.80;5.93;;;;;;;;;;5049795;28;20068;-57
2022/03/04 01:35:54;;;;;;;9.50;5.55;;;;;;;;;;5049220;28;20462;-56
2022/03/04 01:38:20;;;;;;;9.20;4.78;;;;;;;;;;5050175;28;20024;-54
2022/03/04 01:40:46;;;;;;;10.25;5.20;;;;;;;;;;5050320;28;20103;-55
2022/03/04 01:43:12;;;;;;;8.18;4.72;;;;;;;;;;5049644;28;21218;-54
2022/03/04 01:45:38;;;;;;;8.27;5.63;;;;;;;;;;5049781;28;20033;-53
2022/03/04 01:48:05;;;;;;;7.93;5.22;;;;;;;;;;5049813;28;20068;-54
2022/03/04 01:50:31;;;;;;;8.75;5.38;;;;;;;;;;5048633;28;20112;-53
2022/03/04 01:52:57;;;;;;;9.63;5.40;;;;;;;;;;5049725;28;20121;-51
2022/03/04 01:55:23;;;;;;;8.27;4.93;;;;;;;;;;5049330;28;20033;-54
2022/03/04 01:57:49;;;;;;;8.88;4.72;;;;;;;;;;5049236;28;20039;-55
2022/03/04 02:00:16;;;;;;;9.07;5.35;;;;;;;;;;5049819;28;20036;-55
2022/03/04 02:02:42;;;;;;;8.73;5.05;;;;;;;;;;5049316;28;20024;-55
2022/03/04 02:05:12;;;;;;;7.80;4.78;;;;;;;;;;5049125;28;20083;-55
2022/03/04 02:07:38;;;;;;;9.20;5.30;;;;;;;;;;5048377;28;20075;-57
2022/03/04 02:10:04;;;;;;;9.18;5.40;;;;;;;;;;5049215;28;20108;-57
2022/03/04 02:12:30;;;;;;;8.02;5.00;;;;;;;;;;5036531;28;20104;-57
2022/03/04 02:14:56;;;;;;;7.97;5.22;;;;;;;;;;5040433;28;20132;-56
2022/03/04 02:17:22;;;;;;;8.30;4.78;;;;;;;;;;5049255;28;20032;-56
2022/03/04 02:19:52;;;;;;;7.38;4.78;;;;;;;;;;5047667;28;20119;-55
2022/03/04 02:22:18;;;;;;;8.05;5.25;;;;;;;;;;5049401;28;20032;-55
2022/03/04 02:24:45;;;;;;;7.80;4.72;;;;;;;;;;5046560;28;20021;-55
2022/03/04 02:27:11;;;;;;;9.07;4.85;;;;;;;;;;5049334;28;20033;-56
2022/03/04 02:29:37;;;;;;;8.82;5.03;;;;;;;;;;5048616;28;20029;-55
2022/03/04 02:32:03;;;;;;;7.53;4.90;;;;;;;;;;5049205;28;20154;-53
2022/03/04 02:34:29;;;;;;;7.75;5.18;;;;;;;;;;5048756;28;20112;-56
2022/03/04 02:36:56;;;;;;;7.82;5.05;;;;;;;;;;5040678;28;20076;-55
2022/03/04 02:39:22;;;;;;;9.57;5.15;;;;;;;;;;5049013;28;20574;-54
2022/03/04 02:41:48;;;;;;;7.68;4.65;;;;;;;;;;5048548;28;20032;-54
2022/03/04 02:44:14;;;;;;;9.98;5.53;;;;;;;;;;5048391;28;20021;-56
2022/03/04 02:46:40;;;;;;;8.07;4.78;;;;;;;;;;5048229;28;20144;-54
2022/03/04 02:49:07;;;;;;;8.13;4.68;;;;;;;;;;5048773;28;20454;-53
2022/03/04 02:51:34;;;;;;;7.60;5.35;;;;;;;;;;5036446;28;20029;-50
2022/03/04 02:54:00;;;;;;;9.30;5.28;;;;;;;;;;5047046;28;20112;-51
2022/03/04 02:56:26;;;;;;;8.70;4.80;;;;;;;;;;5042442;28;20115;-55
2022/03/04 02:58:52;;;;;;;7.72;4.80;;;;;;;;;;5037182;28;20029;-46
2022/03/04 03:01:18;;;;;;;9.60;5.50;;;;;;;;;;5037818;28;20025;-56
2022/03/04 03:03:44;;;;;;;8.00;4.78;;;;;;;;;;5048295;28;20040;-56
2022/03/04 03:06:10;;;;;;;8.80;5.15;;;;;;;;;;5048545;28;20040;-56
2022/03/04 03:08:37;;;;;;;9.70;4.72;;;;;;;;;;5048318;28;20037;-49
2022/03/04 03:11:03;;;;;;;8.23;4.82;;;;;;;;;;5047661;28;20013;-51
2022/03/04 03:13:29;;;;;;;6.97;4.55;;;;;;;;;;5045627;28;20399;-54
2022/03/04 03:15:55;;;;;;;8.98;5.50;;;;;;;;;;5048386;28;20039;-52
2022/03/04 03:18:21;;;;;;;7.45;4.78;;;;;;;;;;5047872;28;20482;-53
2022/03/04 03:20:47;;;;;;;8.82;5.15;;;;;;;;;;5048355;28;20075;-50
2022/03/04 03:23:13;;;;;;;8.02;4.47;;;;;;;;;;5048267;28;20025;-54
2022/03/04 03:25:39;;;;;;;8.13;4.72;;;;;;;;;;5047961;28;20051;-53
2022/03/04 03:28:05;;;;;;;8.77;5.30;;;;;;;;;;5042130;28;20140;-56
2022/03/04 03:30:32;;;;;;;7.78;4.57;;;;;;;;;;5028066;28;20116;-55
2022/03/04 03:32:58;;;;;;;7.90;5.13;;;;;;;;;;5042560;28;20511;-55
2022/03/04 03:35:25;;;;;;;7.15;4.15;;;;;;;;;;5047860;28;20053;-56
2022/03/04 03:37:51;;;;;;;7.75;4.70;;;;;;;;;;5047052;28;20048;-55
2022/03/04 03:40:17;;;;;;;8.57;5.38;;;;;;;;;;5048103;28;20104;-54
2022/03/04 03:42:43;;;;;;;7.38;4.40;;;;;;;;;;5048116;28;20033;-56
2022/03/04 03:45:10;;;;;;;7.82;5.00;;;;;;;;;;5047976;28;20033;-54
2022/03/04 03:47:38;;;;;;;8.13;4.80;;;;;;;;;;5047779;28;20410;-55
2022/03/04 03:50:05;;;;;;;8.48;4.72;;;;;;;;;;5048528;28;20036;-57
2022/03/04 03:52:31;;;;;;;9.23;5.63;;;;;;;;;;5047004;28;20028;-53
2022/03/04 03:54:57;;;;;;;7.32;4.60;;;;;;;;;;5048607;28;20017;-55
2022/03/04 03:57:24;;;;;;;7.85;4.55;;;;;;;;;;5047598;28;20052;-55
2022/03/04 03:59:50;;;;;;;7.72;4.50;;;;;;;;;;5047845;28;20074;-55
2022/03/04 04:02:16;;;;;;;8.40;4.70;;;;;;;;;;5047796;28;20029;-54
2022/03/04 04:04:44;;;;;;;8.00;4.30;;;;;;;;;;5047444;28;20147;-56
2022/03/04 04:07:12;;;;;;;7.60;4.55;;;;;;;;;;5033001;28;20459;-52
2022/03/04 04:09:38;;;;;;;9.13;5.15;;;;;;;;;;5046512;28;20033;-57
2022/03/04 04:12:04;;;;;;;7.70;4.57;;;;;;;;;;5047781;28;20025;-53
2022/03/04 04:14:31;;;;;;;9.02;4.93;;;;;;;;;;5047096;28;20029;-52
2022/03/04 04:16:57;;;;;;;7.75;4.88;;;;;;;;;;5047843;28;20483;-56
2022/03/04 04:19:24;;;;;;;8.40;5.22;;;;;;;;;;5047410;28;20135;-55
2022/03/04 04:21:50;;;;;;;8.00;5.30;;;;;;;;;;5031819;28;20116;-54
2022/03/04 04:24:17;;;;;;;8.63;5.13;;;;;;;;;;5042580;28;20021;-54
2022/03/04 04:26:43;;;;;;;7.47;4.97;;;;;;;;;;5051919;28;20827;-55
2022/03/04 04:29:09;;;;;;;8.63;4.82;;;;;;;;;;5051230;28;20035;-54
2022/03/04 04:31:35;;;;;;;9.52;5.47;;;;;;;;;;5050901;28;20037;-53
2022/03/04 04:34:02;;;;;;;7.97;4.38;;;;;;;;;;5051555;28;20029;-52
2022/03/04 04:36:28;;;;;;;7.32;4.80;;;;;;;;;;5041664;28;20487;-54
2022/03/04 04:38:54;;;;;;;7.20;4.53;;;;;;;;;;5051596;28;20024;-53
2022/03/04 04:41:20;;;;;;;9.93;4.70;;;;;;;;;;5051177;28;20052;-53
2022/03/04 04:43:46;;;;;;;7.85;4.78;;;;;;;;;;5051174;28;20025;-54
2022/03/04 04:46:13;;;;;;;6.78;4.05;;;;;;;;;;5050409;28;20032;-55
2022/03/04 04:48:39;;;;;;;8.20;5.28;;;;;;;;;;5051047;28;20033;-54
2022/03/04 04:51:05;;;;;;;8.38;5.28;;;;;;;;;;5038988;28;20379;-56
2022/03/04 04:53:32;;;;;;;7.45;4.40;;;;;;;;;;5051073;28;20072;-51
2022/03/04 04:55:59;;;;;;;8.27;5.05;;;;;;;;;;5050822;28;20108;-54
2022/03/04 04:58:25;;;;;;;8.27;4.95;;;;;;;;;;5050820;28;20035;-49
2022/03/04 05:00:55;;;;;;;7.85;4.90;;;;;;;;;;5050698;28;20159;-53
2022/03/04 05:03:22;;;;;;;9.23;5.28;;;;;;;;;;5046833;28;20048;-53
2022/03/04 05:05:48;;;;;;;12.60;5.47;;;;;;;;;;5049031;28;20088;-55
2022/03/04 05:08:15;;;;;;;8.40;4.55;;;;;;;;;;5050981;28;20086;-55
2022/03/04 05:10:41;;;;;;;8.65;5.68;;;;;;;;;;5050345;28;20055;-56
2022/03/04 05:13:07;;;;;;;9.25;5.75;;;;;;;;;;5050829;28;20035;-56
2022/03/04 05:15:33;;;;;;;8.90;5.70;;;;;;;;;;5050534;28;20025;-52
2022/03/04 05:17:59;;;;;;;9.35;5.72;;;;;;;;;;5050158;28;20044;-55
2022/03/04 05:20:25;;;;;;;11.13;6.35;;;;;;;;;;5043463;28;20123;-52
2022/03/04 05:22:51;;;;;;;10.73;6.22;;;;;;;;;;5050576;28;20032;-56
2022/03/04 05:25:17;;;;;;;10.68;6.18;;;;;;;;;;5049918;28;20037;-55
2022/03/04 05:27:43;;;;;;;10.57;6.40;;;;;;;;;;5050060;28;20037;-49
2022/03/04 05:30:10;;;;;;;9.63;5.90;;;;;;;;;;5050095;28;20570;-51
2022/03/04 05:32:36;;;;;;;10.65;6.35;;;;;;;;;;5049535;28;20079;-49
2022/03/04 05:35:02;;;;;;;9.98;6.15;;;;;;;;;;5049722;28;20490;-49
2022/03/04 05:37:28;;;;;;;13.23;6.90;;;;;;;;;;5048113;28;20036;-49
2022/03/04 05:39:54;;;;;;;11.93;6.80;;;;;;;;;;5050235;28;20029;-52
2022/03/04 05:42:20;;;;;;;10.20;5.97;;;;;;;;;;5049846;28;20566;-51
2022/03/04 05:44:46;;;;;;;10.93;6.82;;;;;;;;;;5049737;28;20032;-52
2022/03/04 05:47:12;;;;;;;10.43;6.60;;;;;;;;;;5049748;28;20550;-53
2022/03/04 05:49:38;;;;;;;10.40;6.63;;;;;;;;;;5049493;28;20108;-53
2022/03/04 05:52:05;;;;;;;11.68;6.43;;;;;;;;;;5049601;28;20039;-54
2022/03/04 05:54:31;;;;;;;10.32;6.65;;;;;;;;;;5049424;28;20100;-55
2022/03/04 05:56:57;;;;;;;12.82;7.25;;;;;;;;;;5048079;28;20483;-54
2022/03/04 05:59:23;;;;;;;10.68;6.63;;;;;;;;;;5049443;28;20553;-54
2022/03/04 06:01:50;;;;;;;10.65;7.38;;;;;;;;;;5049707;28;20024;-56
2022/03/04 06:04:17;;;;;;;12.07;7.22;;;;;;;;;;5049027;28;20069;-54
2022/03/04 06:06:43;;;;;;;11.80;7.63;;;;;;;;;;5049075;28;20032;-56
2022/03/04 06:09:09;;;;;;;15.30;7.30;;;;;;;;;;5049542;28;20032;-53
2022/03/04 06:11:35;;;;;;;17.67;7.43;;;;;;;;;;5049181;28;20773;-56
2022/03/04 06:14:01;;;;;;;16.42;7.80;;;;;;;;;;5049120;28;20458;-52
2022/03/04 06:16:27;;;;;;;16.63;8.00;;;;;;;;;;5049437;28;20029;-56
2022/03/04 06:18:54;;;;;;;16.15;7.28;;;;;;;;;;5049076;28;20495;-52
2022/03/04 06:21:20;;;;;;;19.42;7.22;;;;;;;;;;5043459;28;20068;-53
2022/03/04 06:23:46;;;;;;;18.92;7.05;;;;;;;;;;5045096;28;20446;-53
2022/03/04 06:26:13;;;;;;;16.25;7.85;;;;;;;;;;5049330;28;20156;-56
2022/03/04 06:28:40;;;;;;;15.57;10.50;;;;;;;;;;5048714;28;20033;-52
2022/03/04 06:31:06;;;;;;;18.08;12.63;;;;;;;;;;5048630;28;20479;-54
2022/03/04 06:33:32;;;;;;;17.88;11.30;;;;;;;;;;5048407;28;20024;-55
2022/03/04 06:36:05;;;;;;;16.77;9.75;;;;;;;;;;5047389;28;20043;-53
2022/03/04 06:38:32;;;;;;;16.95;10.25;;;;;;;;;;5048728;28;20043;-56
2022/03/04 06:40:59;;;;;;;19.75;10.57;;;;;;;;;;5046418;28;20043;-54
2022/03/04 06:43:25;;;;;;;14.95;9.75;;;;;;;;;;5047139;28;20025;-57
2022/03/04 06:45:51;;;;;;;18.10;9.98;;;;;;;;;;5048674;28;20405;-54
2022/03/04 06:48:18;;;;;;;18.85;9.50;;;;;;;;;;5039781;28;20039;-55
2022/03/04 06:50:45;;;;;;;17.50;9.48;;;;;;;;;;5048028;28;20178;-55
2022/03/04 06:53:11;;;;;;;16.30;8.48;;;;;;;;;;5031401;28;20034;-55
2022/03/04 06:55:37;;;;;;;16.17;8.93;;;;;;;;;;5046503;28;20881;-56
2022/03/04 06:58:03;;;;;;;14.10;8.25;;;;;;;;;;5049108;28;20056;-55
2022/03/04 07:00:30;;;;;;;14.48;9.13;;;;;;;;;;5048533;28;20128;-54
2022/03/04 07:02:56;;;;;;;13.45;8.23;;;;;;;;;;5048104;28;20025;-56
2022/03/04 07:05:22;;;;;;;14.85;7.95;;;;;;;;;;5045233;28;20131;-56
2022/03/04 07:07:49;;;;;;;11.85;7.35;;;;;;;;;;5047855;28;20045;-53
2022/03/04 07:10:15;;;;;;;13.20;7.55;;;;;;;;;;5045529;28;20037;-56
2022/03/04 07:12:41;;;;;;;16.10;7.38;;;;;;;;;;5047159;28;20075;-57
2022/03/04 07:15:09;;;;;;;16.60;8.07;;;;;;;;;;5047316;28;20053;-53
2022/03/04 07:17:35;;;;;;;20.67;8.20;;;;;;;;;;5047197;28;20060;-56
2022/03/04 07:20:02;;;;;;;18.98;7.57;;;;;;;;;;5041049;28;20056;-57
2022/03/04 07:22:28;;;;;;;17.77;7.03;;;;;;;;;;5045705;28;20024;-57
2022/03/04 07:24:54;;;;;;;15.10;7.30;;;;;;;;;;5044561;28;20111;-55
2022/03/04 07:27:20;;;;;;;20.27;8.18;;;;;;;;;;5041741;28;20034;-53
2022/03/04 07:29:46;;;;;;;27.02;8.30;;;;;;;;;;5041493;28;20029;-51
2022/03/04 07:32:13;;;;;;;20.77;7.35;;;;;;;;;;5041293;28;20083;-56
2022/03/04 07:34:39;;;;;;;14.63;7.57;;;;;;;;;;5039643;28;20047;-56
2022/03/04 07:37:05;;;;;;;19.35;7.13;;;;;;;;;;5046275;28;20495;-54
2022/03/04 07:39:32;;;;;;;18.38;6.95;;;;;;;;;;5041749;28;20040;-55
2022/03/04 07:41:58;;;;;;;17.05;6.93;;;;;;;;;;5047357;28;20032;-57
2022/03/04 07:44:24;;;;;;;16.48;6.30;;;;;;;;;;5042979;28;20032;-57
2022/03/04 07:46:50;;;;;;;16.92;7.20;;;;;;;;;;5033910;28;20042;-57
2022/03/04 07:49:16;;;;;;;13.27;6.55;;;;;;;;;;5034743;28;20033;-55
2022/03/04 07:51:43;;;;;;;14.43;6.05;;;;;;;;;;5034991;28;20433;-56
2022/03/04 07:54:10;;;;;;;14.82;7.57;;;;;;;;;;5033775;28;20025;-57
2022/03/04 07:56:36;;;;;;;12.20;6.32;;;;;;;;;;5040963;28;20037;-55
2022/03/04 07:59:02;;;;;;;17.63;7.30;;;;;;;;;;5039048;28;20111;-57
2022/03/04 08:01:28;;;;;;;17.90;7.07;;;;;;;;;;5037571;28;20052;-56
2022/03/04 08:03:55;;;;;;;21.13;12.68;;;;;;;;;;5036135;28;20150;-55
2022/03/04 08:06:21;;;;;;;21.60;14.23;;;;;;;;;;5038241;28;20044;-52
2022/03/04 08:08:47;;;;;;;25.08;15.13;;;;;;;;;;5038379;28;20029;-55
2022/03/04 08:11:13;;;;;;;19.85;14.40;;;;;;;;;;5035706;28;20411;-55
2022/03/04 08:13:39;;;;;;;23.83;15.60;;;;;;;;;;5039212;28;20024;-58
2022/03/04 08:16:05;;;;;;;21.35;15.18;;;;;;;;;;5036228;28;20027;-57
2022/03/04 08:18:31;;;;;;;22.17;15.38;;;;;;;;;;5037743;28;20057;-56
2022/03/04 08:20:59;;;;;;;22.48;16.08;;;;;;;;;;5037254;28;20466;-56
2022/03/04 08:23:25;;;;;;;25.05;15.88;;;;;;;;;;5038884;28;20021;-56
2022/03/04 08:25:52;;;;;;;22.40;15.10;;;;;;;;;;5036844;28;20034;-56
2022/03/04 08:28:18;;;;;;;23.17;14.43;;;;;;;;;;5040600;28;20415;-56
2022/03/04 08:30:44;;;;;;;27.02;14.35;;;;;;;;;;5036960;28;20093;-55
2022/03/04 08:33:10;;;;;;;20.38;14.65;;;;;;;;;;5040132;28;20634;-55
2022/03/04 08:35:36;;;;;;;20.73;14.68;;;;;;;;;;5033968;28;20087;-54
2022/03/04 08:38:02;;;;;;;19.02;13.00;;;;;;;;;;5038875;28;20550;-54
2022/03/04 08:40:29;;;;;;;24.98;14.10;;;;;;;;;;5036068;28;20064;-56
2022/03/04 08:42:55;;;;;;;19.13;13.20;;;;;;;;;;5035413;28;20049;-55
2022/03/04 08:45:21;;;;;;;18.15;12.20;;;;;;;;;;5037763;28;20039;-57
2022/03/04 08:47:47;;;;;;;22.40;11.65;;;;;;;;;;5036693;28;20037;-54
2022/03/04 08:50:14;;;;;;;19.38;11.38;;;;;;;;;;5036468;28;20040;-55
2022/03/04 08:52:40;;;;;;;18.15;10.70;;;;;;;;;;5033969;28;20030;-56
2022/03/04 08:55:13;;;;;;;22.90;11.50;;;;;;;;;;5032895;28;20041;-56
2022/03/04 08:57:40;;;;;;;14.38;10.20;;;;;;;;;;5034177;28;20120;-55
2022/03/04 09:00:06;;;;;;;19.73;10.50;;;;;;;;;;5039318;28;20108;-54
2022/03/04 09:02:33;;;;;;;15.75;9.57;;;;;;;;;;5036551;28;20041;-56
2022/03/04 09:04:59;;;;;;;14.63;9.45;;;;;;;;;;5033576;28;20323;-54
2022/03/04 09:07:26;;;;;;;11.48;8.25;;;;;;;;;;5031585;28;20717;-51
2022/03/04 09:09:52;;;;;;;24.67;10.68;;;;;;;;;;5037653;28;20021;-57
2022/03/04 09:12:19;;;;;;;15.18;8.85;;;;;;;;;;5029243;28;20028;-54
2022/03/04 09:14:45;;;;;;;15.02;8.07;;;;;;;;;;5035964;28;20075;-56
2022/03/04 09:17:11;;;;;;;16.45;8.93;;;;;;;;;;5033752;28;20459;-55
2022/03/04 09:19:37;;;;;;;14.30;7.78;;;;;;;;;;5031638;28;20494;-52
2022/03/04 09:22:03;;;;;;;12.63;7.60;;;;;;;;;;5031808;28;20033;-57
2022/03/04 09:24:30;;;;;;;12.95;8.15;;;;;;;;;;5036952;28;20025;-54
2022/03/04 09:26:56;;;;;;;14.38;7.30;;;;;;;;;;5032118;28;20026;-56
2022/03/04 09:29:22;;;;;;;11.20;7.60;;;;;;;;;;5035360;28;20582;-52
2022/03/04 09:31:48;;;;;;;12.07;6.72;;;;;;;;;;5032249;28;20471;-56
2022/03/04 09:34:15;;;;;;;11.75;6.95;;;;;;;;;;5035444;28;20063;-54
2022/03/04 09:36:41;;;;;;;13.82;8.13;;;;;;;;;;5031842;28;20033;-56
2022/03/04 09:39:07;;;;;;;10.88;7.38;;;;;;;;;;5033914;28;20036;-52
2022/03/04 09:41:33;;;;;;;11.65;7.10;;;;;;;;;;5036354;28;20021;-54
2022/03/04 09:43:59;;;;;;;12.05;7.70;;;;;;;;;;5033838;28;20033;-54
2022/03/04 09:46:25;;;;;;;15.05;8.73;;;;;;;;;;5032308;28;20037;-54
2022/03/04 09:48:52;;;;;;;19.88;9.27;;;;;;;;;;5033438;28;20032;-55
2022/03/04 09:51:18;;;;;;;12.50;7.45;;;;;;;;;;5035709;28;20034;-56
2022/03/04 09:53:45;;;;;;;14.88;8.05;;;;;;;;;;5032590;28;20029;-57
2022/03/04 09:56:12;;;;;;;15.30;8.90;;;;;;;;;;5032670;28;20021;-57
2022/03/04 09:58:38;;;;;;;15.38;7.82;;;;;;;;;;5032222;28;20119;-55
2022/03/04 10:01:14;;;;;;;11.70;7.63;;;;;;;;;;5033590;28;20082;-56
2022/03/04 10:03:40;;;;;;;10.15;6.82;;;;;;;;;;5037291;28;20029;-56
2022/03/04 10:06:06;;;;;;;11.93;6.18;;;;;;;;;;5034730;28;20449;-57
2022/03/04 10:08:59;;;;;;;12.85;6.57;;;;;;;;;;5033699;28;20040;-56
2022/03/04 10:11:30;;;;;;;16.55;6.88;;;;;;;;;;5035865;28;20053;-57
2022/03/04 10:13:59;;;;;;;13.65;5.90;;;;;;;;;;5036499;28;20487;-55
2022/03/04 10:16:28;;;;;;;13.70;6.53;;;;;;;;;;5037670;28;20021;-57
2022/03/04 10:19:13;;;;;;;10.15;6.75;;;;;;;;;;5037248;28;20107;-55
2022/03/04 10:21:45;;;;;;;12.90;6.22;;;;;;;;;;5038965;28;20034;-54
2022/03/04 10:24:11;;;;;;;19.17;7.28;;;;;;;;;;5040746;28;20037;-58
2022/03/04 10:26:37;;;;;;;13.15;6.55;;;;;;;;;;5036085;28;20157;-56
2022/03/04 10:29:18;;;;;;;15.63;6.38;;;;;;;;;;5038662;28;20087;-54
2022/03/04 10:32:03;;;;;;;11.57;6.78;;;;;;;;;;5036228;28;20037;-55
2022/03/04 10:34:29;;;;;;;12.25;6.47;;;;;;;;;;5035305;28;20087;-57
2022/03/04 10:36:55;;;;;;;11.00;6.45;;;;;;;;;;5036933;28;20025;-54
2022/03/04 10:39:22;;;;;;;11.23;6.25;;;;;;;;;;5033983;28;20074;-58
2022/03/04 10:41:51;;;;;;;10.35;5.85;;;;;;;;;;5034922;28;20540;-58
2022/03/04 10:44:27;;;;;;;15.75;7.38;;;;;;;;;;5036059;28;20028;-58
2022/03/04 10:46:53;;;;;;;13.50;6.45;;;;;;;;;;5035187;28;20526;-56
2022/03/04 10:49:30;;;;;;;11.23;6.63;;;;;;;;;;5036303;28;20466;-57
2022/03/04 10:52:06;;;;;;;9.82;7.03;;;;;;;;;;5030440;28;20037;-57
2022/03/04 10:54:32;;;;;;;12.45;6.13;;;;;;;;;;5034777;28;20093;-57
2022/03/04 10:56:58;;;;;;;10.93;6.00;;;;;;;;;;5030299;28;20762;-57
2022/03/04 10:59:24;;;;;;;10.90;6.18;;;;;;;;;;5032329;28;20104;-58
2022/03/04 11:01:54;;;;;;;13.02;7.25;;;;;;;;;;5033502;28;20412;-58
2022/03/04 11:04:21;;;;;;;16.60;6.97;;;;;;;;;;5030127;28;20060;-57
2022/03/04 11:06:48;;;;;;;13.20;6.70;;;;;;;;;;5036970;28;20115;-59
2022/03/04 11:09:15;;;;;;;10.13;5.70;;;;;;;;;;5032823;28;20043;-57
2022/03/04 11:11:43;;;;;;;11.57;6.43;;;;;;;;;;5033311;28;20420;-58
2022/03/04 11:14:12;;;;;;;13.10;6.13;;;;;;;;;;5033721;28;20025;-58
2022/03/04 11:16:39;;;;;;;11.10;5.43;;;;;;;;;;5032879;28;20128;-58
2022/03/04 11:19:06;;;;;;;9.27;5.40;;;;;;;;;;5036839;28;20025;-56
2022/03/04 11:21:32;;;;;;;10.15;6.00;;;;;;;;;;5047697;28;20033;-58
2022/03/04 11:23:58;;;;;;;14.57;6.68;;;;;;;;;;5046548;28;20029;-58
2022/03/04 11:26:26;;;;;;;11.55;6.40;;;;;;;;;;5046862;28;20033;-57
2022/03/04 11:28:54;;;;;;;10.65;5.90;;;;;;;;;;5045572;28;20112;-56
2022/03/04 11:31:21;;;;;;;9.98;5.75;;;;;;;;;;5046658;28;20028;-57
2022/03/04 11:33:51;;;;;;;9.82;5.40;;;;;;;;;;5046307;28;20565;-56
2022/03/04 11:36:25;;;;;;;7.72;5.45;;;;;;;;;;5045931;28;20025;-57
2022/03/04 11:38:53;;;;;;;9.25;5.13;;;;;;;;;;5045203;28;20068;-59
2022/03/04 11:41:19;;;;;;;9.15;5.32;;;;;;;;;;5045802;28;20021;-58
2022/03/04 11:43:45;;;;;;;9.88;6.05;;;;;;;;;;5045858;28;20032;-56
2022/03/04 11:46:18;;;;;;;8.63;5.15;;;;;;;;;;5046051;28;20112;-56
2022/03/04 11:48:44;;;;;;;12.50;6.53;;;;;;;;;;5046376;28;20079;-54
2022/03/04 11:51:17;;;;;;;11.80;5.80;;;;;;;;;;5046709;28;20049;-53
2022/03/04 11:53:43;;;;;;;10.02;5.57;;;;;;;;;;5047510;28;20033;-55
2022/03/04 11:56:11;;;;;;;8.18;5.07;;;;;;;;;;5047222;28;20111;-55
2022/03/04 11:58:55;;;;;;;12.13;5.35;;;;;;;;;;5047270;28;20029;-55
2022/03/04 12:01:29;;;;;;;8.82;4.90;;;;;;;;;;5037770;28;20033;-55
2022/03/04 12:04:04;;;;;;;8.60;5.20;;;;;;;;;;5047519;28;20029;-56
2022/03/04 12:06:31;;;;;;;11.15;4.70;;;;;;;;;;5046629;28;20037;-56
2022/03/04 12:08:58;;;;;;;8.18;5.00;;;;;;;;;;5047753;28;20036;-56
2022/03/04 12:11:24;;;;;;;8.98;4.70;;;;;;;;;;5047006;28;20051;-56
2022/03/04 12:14:06;;;;;;;8.55;5.15;;;;;;;;;;5047286;28;20033;-55
2022/03/04 12:16:46;;;;;;;8.05;5.18;;;;;;;;;;5046912;28;20446;-56
2022/03/04 12:19:31;;;;;;;11.63;5.57;;;;;;;;;;5046360;28;20551;-53
2022/03/04 12:21:58;;;;;;;8.55;4.70;;;;;;;;;;5036804;28;20021;-55
2022/03/04 12:24:33;;;;;;;8.15;4.47;;;;;;;;;;5046766;28;20402;-55
2022/03/04 12:27:00;;;;;;;8.10;4.78;;;;;;;;;;5046928;28;20040;-53
2022/03/04 12:29:46;;;;;;;9.60;5.25;;;;;;;;;;5046445;28;20082;-55
2022/03/04 12:32:12;;;;;;;7.85;4.25;;;;;;;;;;5036151;28;20029;-53
2022/03/04 12:34:49;;;;;;;8.95;4.25;;;;;;;;;;5046283;28;20024;-57
2022/03/04 12:37:15;;;;;;;6.90;4.43;;;;;;;;;;5046660;28;20022;-54
2022/03/04 12:39:46;;;;;;;9.43;4.88;;;;;;;;;;5046837;28;20021;-54
2022/03/04 12:42:12;;;;;;;8.30;4.68;;;;;;;;;;5048163;28;20028;-58
2022/03/04 12:44:38;;;;;;;8.45;4.93;;;;;;;;;;5049809;28;20464;-57
2022/03/04 12:47:04;;;;;;;7.00;4.90;;;;;;;;;;5045713;28;20036;-55
2022/03/04 12:49:31;;;;;;;7.15;4.22;;;;;;;;;;5041998;28;20108;-58
2022/03/04 12:51:58;;;;;;;6.57;4.03;;;;;;;;;;5049937;28;20029;-55
2022/03/04 12:54:28;;;;;;;9.40;4.70;;;;;;;;;;5048364;28;20929;-55
2022/03/04 12:56:56;;;;;;;8.63;5.25;;;;;;;;;;5041512;28;20033;-54
2022/03/04 12:59:22;;;;;;;9.65;6.10;;;;;;;;;;5039515;28;20106;-55
2022/03/04 13:01:50;;;;;;;7.97;5.10;;;;;;;;;;5043583;28;20037;-56
2022/03/04 13:04:16;;;;;;;9.15;4.88;;;;;;;;;;5037776;28;20049;-56
2022/03/04 13:06:42;;;;;;;7.22;4.45;;;;;;;;;;5039962;28;20648;-53
2022/03/04 13:09:09;;;;;;;9.55;5.13;;;;;;;;;;5038635;28;20822;-57
2022/03/04 13:11:41;;;;;;;10.15;4.85;;;;;;;;;;5040650;28;20036;-54
2022/03/04 13:14:08;;;;;;;8.13;4.88;;;;;;;;;;5039278;28;20534;-56
2022/03/04 13:16:42;;;;;;;9.57;4.10;;;;;;;;;;5042371;28;20029;-56
2022/03/04 13:19:10;;;;;;;10.82;4.28;;;;;;;;;;5043891;28;20099;-55
2022/03/04 13:21:38;;;;;;;8.98;4.82;;;;;;;;;;5042335;28;20045;-57
2022/03/04 13:24:07;;;;;;;9.15;4.78;;;;;;;;;;5042975;28;20170;-56
2022/03/04 13:26:34;;;;;;;11.90;4.15;;;;;;;;;;5045243;28;20164;-56
2022/03/04 13:29:01;;;;;;;8.55;4.60;;;;;;;;;;5043533;28;20040;-57
2022/03/04 13:31:28;;;;;;;9.52;4.97;;;;;;;;;;5044149;28;20046;-56
2022/03/04 13:33:57;;;;;;;10.18;4.20;;;;;;;;;;5045260;28;20041;-55
2022/03/04 13:36:47;;;;;;;6.97;3.90;;;;;;;;;;5040903;28;20582;-54
2022/03/04 13:39:33;;;;;;;9.57;4.60;;;;;;;;;;5045006;28;20024;-56
2022/03/04 13:42:14;;;;;;;9.32;4.18;;;;;;;;;;5043707;28;20339;-54
2022/03/04 13:44:53;;;;;;;10.75;3.97;;;;;;;;;;5043358;28;20024;-57
2022/03/04 13:47:28;;;;;;;8.18;4.28;;;;;;;;;;5038590;28;20087;-56
2022/03/04 13:49:55;;;;;;;8.45;3.65;;;;;;;;;;5039064;28;20033;-57
2022/03/04 13:52:21;;;;;;;9.90;4.13;;;;;;;;;;5042696;28;20040;-57
2022/03/04 13:54:47;;;;;;;6.32;3.78;;;;;;;;;;5041217;28;20341;-57
2022/03/04 13:57:33;;;;;;;6.47;3.92;;;;;;;;;;5041717;28;20039;-57
2022/03/04 14:00:10;;;;;;;10.27;4.47;;;;;;;;;;5042894;28;20033;-55
2022/03/04 14:02:40;;;;;;;12.13;3.72;;;;;;;;;;5041092;28;20135;-56
2022/03/04 14:05:06;;;;;;;;;;;;;;;;;;5043560;28;20048;-56
2022/03/04 14:07:42;;;;;;;7.30;3.40;;;;;;;;;;5036045;28;19968;-57
2022/03/04 14:10:16;;;;;;;9.18;4.20;;;;;;;;;;5048538;28;20115;-57
2022/03/04 14:12:43;;;;;;;9.27;4.35;;;;;;;;;;5046031;28;20115;-56
2022/03/04 14:15:09;;;;;;;9.35;4.95;;;;;;;;;;5040539;28;20384;-58
2022/03/04 14:17:47;;;;;;;7.75;3.80;;;;;;;;;;5038773;28;20120;-57
2022/03/04 14:20:13;;;;;;;7.05;3.80;;;;;;;;;;5041946;28;20364;-56
2022/03/04 14:22:39;;;;;;;8.10;3.80;;;;;;;;;;5040260;28;20036;-57
2022/03/04 14:25:05;;;;;;;7.97;3.80;;;;;;;;;;5045103;28;20434;-56
2022/03/04 14:27:31;;;;;;;6.75;4.10;;;;;;;;;;5040668;28;20448;-56
2022/03/04 14:29:57;;;;;;;7.03;3.47;;;;;;;;;;5046446;28;20698;-54
2022/03/04 14:32:23;;;;;;;8.10;4.13;;;;;;;;;;5042723;28;20100;-55
2022/03/04 14:34:49;;;;;;;8.88;3.83;;;;;;;;;;5040977;28;20563;-56
2022/03/04 14:37:15;;;;;;;6.32;4.10;;;;;;;;;;5040599;28;20096;-57